createdAt,value
2023-03-16T00:00:48.090Z,7.80
2023-03-16T00:03:19.334Z,7.80
2023-03-16T00:05:54.435Z,7.80
2023-03-16T00:08:21.176Z,7.80
2023-03-16T00:10:48.407Z,7.80
2023-03-16T00:13:19.708Z,7.80
2023-03-16T00:15:55.270Z,7.80
2023-03-16T00:18:27.164Z,7.80
2023-03-16T00:20:59.508Z,7.80
2023-03-16T00:23:29.854Z,7.80
2023-03-16T00:25:58.824Z,7.80
2023-03-16T00:28:27.477Z,7.80
2023-03-16T00:30:59.158Z,7.80
2023-03-16T00:33:26.664Z,7.80
2023-03-16T00:36:02.221Z,7.80
2023-03-16T00:38:35.068Z,7.80
2023-03-16T00:41:04.153Z,7.80
2023-03-16T00:43:32.082Z,7.80
2023-03-16T00:46:06.682Z,7.80
2023-03-16T00:48:38.469Z,7.80
2023-03-16T00:51:07.783Z,7.70
2023-03-16T00:53:36.100Z,7.70
2023-03-16T00:56:07.048Z,7.70
2023-03-16T00:58:35.925Z,7.70
2023-03-16T01:01:03.577Z,7.80
2023-03-16T01:03:30.450Z,7.80
2023-03-16T01:06:00.629Z,7.80
2023-03-16T01:08:30.576Z,7.80
2023-03-16T01:11:01.735Z,7.80
2023-03-16T01:13:28.460Z,7.80
2023-03-16T01:15:55.211Z,7.70
2023-03-16T01:18:22.399Z,7.80
2023-03-16T01:20:51.072Z,7.80
2023-03-16T01:23:19.430Z,7.80
2023-03-16T01:25:52.984Z,7.80
2023-03-16T01:28:25.050Z,7.80
2023-03-16T01:30:58.241Z,7.80
2023-03-16T01:33:27.035Z,7.80
2023-03-16T01:36:01.903Z,7.80
2023-03-16T01:38:28.798Z,7.80
2023-03-16T01:40:55.965Z,7.80
2023-03-16T01:43:25.164Z,7.80
2023-03-16T01:46:07.145Z,7.80
2023-03-16T01:48:37.365Z,7.80
2023-03-16T01:51:12.337Z,7.80
2023-03-16T01:53:44.550Z,7.80
2023-03-16T01:56:13.808Z,7.80
2023-03-16T01:58:44.016Z,7.80
2023-03-16T02:01:13.130Z,7.80
2023-03-16T02:03:41.754Z,7.80
2023-03-16T02:06:16.538Z,7.80
2023-03-16T02:08:45.360Z,7.80
2023-03-16T02:11:12.813Z,7.80
2023-03-16T02:13:39.600Z,7.80
2023-03-16T02:16:08.465Z,7.80
2023-03-16T02:18:36.167Z,7.80
2023-03-16T02:21:20.651Z,7.80
2023-03-16T02:23:51.102Z,7.80
2023-03-16T02:26:27.247Z,7.80
2023-03-16T02:29:31.756Z,7.70
2023-03-16T02:32:00.082Z,7.70
2023-03-16T02:34:27.909Z,7.70
2023-03-16T02:36:55.831Z,7.70
2023-03-16T02:39:22.524Z,7.70
2023-03-16T02:41:49.438Z,7.70
2023-03-16T02:44:43.721Z,7.60
2023-03-16T02:47:36.985Z,7.60
2023-03-16T02:50:07.461Z,7.60
2023-03-16T02:52:35.794Z,7.60
2023-03-16T02:55:03.149Z,7.60
2023-03-16T02:57:30.081Z,7.60
2023-03-16T02:59:56.775Z,7.60
2023-03-16T03:02:23.874Z,7.60
2023-03-16T03:04:54.397Z,7.60
2023-03-16T03:07:21.766Z,7.60
2023-03-16T03:09:48.507Z,7.60
2023-03-16T03:12:15.310Z,7.60
2023-03-16T03:14:42.211Z,7.60
2023-03-16T03:17:10.332Z,7.60
2023-03-16T03:19:37.065Z,7.60
2023-03-16T03:22:06.288Z,7.60
2023-03-16T03:24:34.543Z,7.60
2023-03-16T03:27:05.738Z,7.60
2023-03-16T03:29:36.128Z,7.50
2023-03-16T03:32:04.320Z,7.60
2023-03-16T03:34:31.884Z,7.60
2023-03-16T03:36:59.139Z,7.60
2023-03-16T03:39:26.286Z,7.60
2023-03-16T03:41:55.956Z,7.50
2023-03-16T03:44:23.484Z,7.50
2023-03-16T03:46:51.598Z,7.50
2023-03-16T03:49:18.404Z,7.50
2023-03-16T03:51:45.204Z,7.50
2023-03-16T03:54:11.946Z,7.50
2023-03-16T03:56:38.727Z,7.50
2023-03-16T03:59:05.655Z,7.50
2023-03-16T04:01:32.554Z,7.50
2023-03-16T04:03:59.501Z,7.50
2023-03-16T04:06:26.493Z,7.50
2023-03-16T04:08:54.291Z,7.50
2023-03-16T04:11:21.787Z,7.50
2023-03-16T04:13:51.211Z,7.50
2023-03-16T04:16:18.051Z,7.50
2023-03-16T04:18:46.107Z,7.50
2023-03-16T04:21:17.630Z,7.50
2023-03-16T04:23:44.403Z,7.50
2023-03-16T04:26:11.288Z,7.50
2023-03-16T04:28:38.466Z,7.50
2023-03-16T04:31:07.629Z,7.50
2023-03-16T04:33:35.565Z,7.50
2023-03-16T04:36:03.145Z,7.60
2023-03-16T04:38:30.738Z,7.50
2023-03-16T04:40:57.488Z,7.40
2023-03-16T04:43:24.167Z,7.50
2023-03-16T04:45:51.033Z,7.50
2023-03-16T04:48:18.128Z,7.40
2023-03-16T04:50:45.343Z,7.40
2023-03-16T04:53:12.038Z,7.40
2023-03-16T04:55:38.832Z,7.40
2023-03-16T04:58:05.515Z,7.40
2023-03-16T05:00:32.213Z,7.40
2023-03-16T05:02:58.924Z,7.40
2023-03-16T05:05:25.698Z,7.40
2023-03-16T05:07:52.494Z,7.40
2023-03-16T05:10:19.313Z,7.30
2023-03-16T05:12:46.296Z,7.40
2023-03-16T05:15:13.852Z,7.30
2023-03-16T05:17:42.035Z,7.30
2023-03-16T05:20:15.388Z,7.30
2023-03-16T05:22:44.635Z,7.30
2023-03-16T05:25:15.166Z,7.30
2023-03-16T05:27:46.773Z,7.20
2023-03-16T05:30:16.368Z,7.30
2023-03-16T05:32:43.743Z,7.30
2023-03-16T05:35:13.510Z,7.30
2023-03-16T05:37:41.590Z,7.30
2023-03-16T05:40:16.961Z,7.30
2023-03-16T05:42:48.856Z,7.30
2023-03-16T05:45:17.285Z,7.30
2023-03-16T05:47:44.535Z,7.30
2023-03-16T05:50:13.584Z,7.30
2023-03-16T05:52:40.874Z,7.30
2023-03-16T05:55:09.483Z,7.30
2023-03-16T05:57:36.276Z,7.30
2023-03-16T06:00:14.536Z,7.30
2023-03-16T06:02:49.646Z,7.40
2023-03-16T06:05:17.894Z,7.40
2023-03-16T06:07:45.107Z,7.30
2023-03-16T06:10:12.627Z,7.30
2023-03-16T06:12:39.436Z,7.40
2023-03-16T06:15:08.022Z,7.40
2023-03-16T06:17:39.326Z,7.40
2023-03-16T06:20:11.268Z,7.40
2023-03-16T06:22:39.578Z,7.40
2023-03-16T06:25:07.237Z,7.40
2023-03-16T06:27:34.022Z,7.40
2023-03-16T06:30:01.683Z,7.40
2023-03-16T06:32:28.509Z,7.30
2023-03-16T06:34:55.318Z,7.30
2023-03-16T06:37:22.093Z,7.30
2023-03-16T06:39:48.849Z,7.40
2023-03-16T06:42:15.573Z,7.40
2023-03-16T06:44:42.717Z,7.40
2023-03-16T06:47:10.457Z,7.40
2023-03-16T06:49:37.426Z,7.40
2023-03-16T06:52:04.366Z,7.40
2023-03-16T06:54:34.120Z,7.40
2023-03-16T06:57:01.490Z,7.40
2023-03-16T06:59:28.280Z,7.40
2023-03-16T07:01:55.362Z,7.40
2023-03-16T07:04:22.173Z,7.40
2023-03-16T07:06:48.953Z,7.40
2023-03-16T07:09:15.746Z,7.40
2023-03-16T07:11:42.693Z,7.40
2023-03-16T07:14:09.433Z,7.50
2023-03-16T07:16:36.199Z,7.50
2023-03-16T07:19:03.057Z,7.50
2023-03-16T07:21:29.789Z,7.60
2023-03-16T07:23:56.604Z,7.60
2023-03-16T07:26:23.347Z,7.60
2023-03-16T07:28:50.060Z,7.70
2023-03-16T07:31:17.140Z,7.70
2023-03-16T07:33:43.901Z,7.70
2023-03-16T07:36:10.898Z,7.80
2023-03-16T07:38:37.753Z,7.80
2023-03-16T07:41:04.586Z,7.80
2023-03-16T07:43:31.308Z,7.80
2023-03-16T07:45:58.193Z,7.90
2023-03-16T07:48:24.993Z,7.90
2023-03-16T07:50:52.027Z,7.90
2023-03-16T07:53:18.976Z,7.90
2023-03-16T07:55:46.358Z,8.00
2023-03-16T07:58:13.526Z,8.00
2023-03-16T08:00:42.462Z,8.00
2023-03-16T08:03:09.674Z,8.10
2023-03-16T08:05:36.634Z,8.20
2023-03-16T08:08:03.431Z,8.20
2023-03-16T08:10:31.253Z,8.20
2023-03-16T08:12:58.318Z,8.20
2023-03-16T08:15:25.042Z,8.20
2023-03-16T08:17:52.610Z,8.30
2023-03-16T08:20:19.560Z,8.30
2023-03-16T08:22:46.800Z,8.30
2023-03-16T08:25:14.762Z,8.40
2023-03-16T08:27:42.825Z,8.40
2023-03-16T08:30:12.657Z,8.40
2023-03-16T08:32:41.341Z,8.50
2023-03-16T08:35:14.249Z,8.50
2023-03-16T08:37:41.800Z,8.60
2023-03-16T08:40:18.949Z,8.60
2023-03-16T08:42:45.745Z,8.70
2023-03-16T08:45:14.300Z,8.80
2023-03-16T08:47:42.642Z,8.80
2023-03-16T08:50:10.784Z,8.90
2023-03-16T08:52:37.597Z,9.00
2023-03-16T08:55:05.868Z,9.10
2023-03-16T08:57:33.695Z,9.10
2023-03-16T09:00:01.421Z,9.20
2023-03-16T09:02:28.241Z,9.30
2023-03-16T09:04:56.180Z,9.40
2023-03-16T09:07:23.026Z,9.40
2023-03-16T09:09:50.806Z,9.50
2023-03-16T09:12:17.857Z,9.60
2023-03-16T09:14:46.000Z,9.70
2023-03-16T09:17:12.921Z,9.80
2023-03-16T09:19:51.195Z,10.00
2023-03-16T09:22:20.884Z,10.00
2023-03-16T09:24:48.726Z,10.10
2023-03-16T09:27:16.261Z,10.20
2023-03-16T09:29:43.727Z,10.30
2023-03-16T09:32:11.053Z,10.40
2023-03-16T09:34:38.140Z,10.50
2023-03-16T09:37:05.269Z,10.60
2023-03-16T09:39:32.082Z,10.70
2023-03-16T09:42:19.631Z,10.80
2023-03-16T09:45:23.931Z,10.90
2023-03-16T09:47:54.119Z,11.00
2023-03-16T09:50:30.192Z,11.00
2023-03-16T09:53:26.462Z,11.00
2023-03-16T09:55:57.932Z,11.10
2023-03-16T09:58:25.265Z,11.20
2023-03-16T10:01:13.371Z,11.20
2023-03-16T10:04:00.546Z,11.20
2023-03-16T10:06:28.408Z,11.30
2023-03-16T10:09:16.166Z,11.30
2023-03-16T10:11:47.096Z,11.40
2023-03-16T10:14:33.044Z,11.50
2023-03-16T10:17:26.545Z,11.50
2023-03-16T10:19:54.599Z,11.60
2023-03-16T10:22:29.875Z,11.70
2023-03-16T10:25:15.379Z,11.80
2023-03-16T10:27:45.161Z,11.80
2023-03-16T10:30:28.810Z,11.90
2023-03-16T10:33:18.434Z,12.00
2023-03-16T10:35:51.778Z,12.00
2023-03-16T10:38:39.965Z,12.00
2023-03-16T10:41:22.668Z,12.10
2023-03-16T10:43:58.538Z,12.10
2023-03-16T10:46:27.698Z,12.10
2023-03-16T10:49:00.028Z,12.20
2023-03-16T10:51:33.522Z,12.20
2023-03-16T10:54:30.632Z,12.30
2023-03-16T10:56:59.038Z,12.30
2023-03-16T10:59:34.261Z,12.30
2023-03-16T11:02:11.705Z,12.30
2023-03-16T11:04:38.556Z,12.30
2023-03-16T11:07:09.926Z,12.30
2023-03-16T11:09:37.568Z,12.40
2023-03-16T11:12:24.564Z,12.40
2023-03-16T11:14:51.347Z,12.40
2023-03-16T11:17:44.717Z,12.40
2023-03-16T11:20:23.726Z,12.50
2023-03-16T11:22:51.222Z,12.50
2023-03-16T11:25:29.139Z,12.50
2023-03-16T11:27:56.067Z,12.50
2023-03-16T11:30:31.040Z,12.50
2023-03-16T11:33:00.543Z,12.50
2023-03-16T11:35:52.745Z,12.60
2023-03-16T11:38:33.910Z,12.60
2023-03-16T11:41:04.757Z,12.70
2023-03-16T11:43:49.667Z,12.70
2023-03-16T11:46:41.977Z,12.90
2023-03-16T11:49:14.911Z,13.00
2023-03-16T11:51:52.794Z,13.20
2023-03-16T11:54:48.641Z,13.30
2023-03-16T11:57:31.372Z,13.40
2023-03-16T12:00:28.953Z,13.50
2023-03-16T12:02:58.836Z,13.50
2023-03-16T12:06:13.612Z,13.60
2023-03-16T12:08:48.255Z,13.60
2023-03-16T12:11:34.243Z,13.70
2023-03-16T12:14:26.663Z,13.70
2023-03-16T12:17:02.993Z,13.70
2023-03-16T12:19:45.024Z,13.70
2023-03-16T12:22:21.520Z,13.70
2023-03-16T12:24:49.187Z,13.80
2023-03-16T12:27:30.256Z,13.80
2023-03-16T12:29:58.449Z,13.90
2023-03-16T12:32:57.159Z,14.00
2023-03-16T12:35:36.526Z,14.10
2023-03-16T12:38:31.271Z,14.30
2023-03-16T12:41:17.956Z,14.40
2023-03-16T12:44:06.103Z,14.50
2023-03-16T12:46:38.648Z,14.60
2023-03-16T12:49:07.499Z,14.70
2023-03-16T12:51:39.968Z,14.70
2023-03-16T12:54:17.549Z,14.80
2023-03-16T12:56:46.882Z,14.80
2023-03-16T12:59:20.038Z,14.80
2023-03-16T13:01:56.805Z,14.70
2023-03-16T13:04:41.596Z,14.80
2023-03-16T13:07:21.587Z,14.70
2023-03-16T13:10:02.592Z,14.70
2023-03-16T13:12:37.158Z,14.80
2023-03-16T13:15:19.509Z,14.90
2023-03-16T13:17:48.414Z,15.10
2023-03-16T13:20:42.917Z,15.10
2023-03-16T13:23:18.727Z,15.10
2023-03-16T13:26:05.907Z,15.10
2023-03-16T13:28:36.355Z,15.00
2023-03-16T13:31:04.801Z,15.00
2023-03-16T13:33:36.744Z,15.00
2023-03-16T13:36:06.211Z,15.00
2023-03-16T13:38:33.112Z,15.00
2023-03-16T13:41:09.211Z,15.00
2023-03-16T13:43:39.951Z,15.10
2023-03-16T13:46:21.462Z,15.10
2023-03-16T13:48:50.375Z,15.10
2023-03-16T13:51:20.728Z,15.10
2023-03-16T13:53:49.370Z,15.10
2023-03-16T13:56:27.053Z,15.10
2023-03-16T13:58:57.037Z,15.20
2023-03-16T14:01:32.196Z,15.20
2023-03-16T14:04:08.538Z,15.20
2023-03-16T14:06:35.847Z,15.30
2023-03-16T14:09:06.108Z,15.30
2023-03-16T14:11:33.167Z,15.40
2023-03-16T14:14:00.941Z,15.50
2023-03-16T14:16:29.750Z,15.50
2023-03-16T14:19:19.268Z,15.60
2023-03-16T14:21:46.805Z,15.70
2023-03-16T14:24:31.050Z,15.80
2023-03-16T14:27:08.777Z,15.80
2023-03-16T14:29:35.731Z,15.80
2023-03-16T14:32:03.224Z,15.80
2023-03-16T14:34:39.687Z,15.80
2023-03-16T14:37:15.846Z,15.80
2023-03-16T14:39:42.940Z,15.90
2023-03-16T14:42:23.855Z,16.00
2023-03-16T14:44:50.905Z,16.00
2023-03-16T14:47:24.997Z,16.10
2023-03-16T14:49:52.333Z,16.10
2023-03-16T14:52:34.105Z,16.10
2023-03-16T14:55:03.591Z,16.10
2023-03-16T14:57:30.697Z,16.20
2023-03-16T14:59:57.461Z,16.30
2023-03-16T15:02:28.711Z,16.30
2023-03-16T15:04:57.421Z,16.30
2023-03-16T15:07:28.497Z,16.30
2023-03-16T15:10:00.742Z,16.20
2023-03-16T15:12:27.460Z,16.10
2023-03-16T15:15:13.013Z,16.10
2023-03-16T15:17:39.818Z,16.00
2023-03-16T15:20:07.232Z,16.00
2023-03-16T15:22:39.150Z,15.90
2023-03-16T15:25:23.041Z,16.00
2023-03-16T15:27:51.032Z,16.00
2023-03-16T15:30:28.976Z,15.90
2023-03-16T15:32:58.072Z,15.80
2023-03-16T15:35:24.834Z,15.70
2023-03-16T15:37:51.672Z,15.60
2023-03-16T15:40:23.555Z,15.50
2023-03-16T15:42:51.603Z,15.40
2023-03-16T15:45:21.405Z,15.30
2023-03-16T15:47:49.805Z,15.30
2023-03-16T15:50:18.353Z,15.20
2023-03-16T15:52:49.595Z,15.20
2023-03-16T15:55:33.177Z,15.10
2023-03-16T15:58:02.280Z,15.10
2023-03-16T16:00:35.744Z,15.00
2023-03-16T16:03:04.564Z,14.90
2023-03-16T16:05:32.489Z,14.90
2023-03-16T16:08:00.168Z,14.90
2023-03-16T16:10:28.700Z,14.90
2023-03-16T16:12:56.918Z,15.00
2023-03-16T16:15:31.153Z,15.00
2023-03-16T16:18:19.970Z,15.10
2023-03-16T16:20:44.952Z,15.10
2023-03-16T16:23:11.740Z,15.00
2023-03-16T16:25:41.700Z,15.00
2023-03-16T16:28:17.575Z,15.00
2023-03-16T16:30:44.968Z,15.00
2023-03-16T16:33:31.530Z,14.90
2023-03-16T16:36:04.433Z,14.80
2023-03-16T16:38:32.435Z,14.90
2023-03-16T16:41:07.644Z,14.80
2023-03-16T16:43:43.087Z,14.70
2023-03-16T16:46:25.352Z,14.70
2023-03-16T16:49:01.821Z,14.70
2023-03-16T16:51:29.874Z,14.70
2023-03-16T16:53:58.215Z,14.70
2023-03-16T16:56:31.760Z,14.70
2023-03-16T16:59:01.680Z,14.70
2023-03-16T17:01:33.121Z,14.60
2023-03-16T17:04:00.376Z,14.60
2023-03-16T17:06:27.920Z,14.50
2023-03-16T17:08:55.341Z,14.40
2023-03-16T17:11:24.158Z,14.40
2023-03-16T17:13:52.698Z,14.30
2023-03-16T17:16:22.104Z,14.20
2023-03-16T17:18:49.799Z,14.20
2023-03-16T17:21:19.759Z,14.10
2023-03-16T17:23:47.829Z,14.00
2023-03-16T17:26:17.902Z,13.90
2023-03-16T17:28:52.253Z,13.90
2023-03-16T17:31:23.409Z,13.90
2023-03-16T17:33:54.596Z,13.80
2023-03-16T17:36:22.700Z,13.70
2023-03-16T17:38:50.089Z,13.60
2023-03-16T17:41:24.083Z,13.60
2023-03-16T17:43:51.985Z,13.50
2023-03-16T17:46:21.671Z,13.50
2023-03-16T17:48:50.998Z,13.40
2023-03-16T17:51:19.133Z,13.40
2023-03-16T17:53:46.012Z,13.30
2023-03-16T17:56:23.055Z,13.30
2023-03-16T17:58:52.452Z,13.20
2023-03-16T18:01:26.479Z,13.20
2023-03-16T18:03:53.366Z,13.10
2023-03-16T18:06:23.957Z,13.10
2023-03-16T18:08:51.067Z,13.00
2023-03-16T18:11:21.833Z,12.90
2023-03-16T18:13:50.803Z,12.90
2023-03-16T18:16:28.020Z,12.80
2023-03-16T18:19:00.007Z,12.80
2023-03-16T18:21:28.285Z,12.70
2023-03-16T18:23:55.077Z,12.70
2023-03-16T18:26:23.879Z,12.70
2023-03-16T18:28:53.406Z,12.60
2023-03-16T18:31:26.393Z,12.60
2023-03-16T18:34:00.896Z,12.60
2023-03-16T18:36:32.170Z,12.60
2023-03-16T18:39:01.623Z,12.50
2023-03-16T18:41:36.064Z,12.50
2023-03-16T18:44:17.056Z,12.40
2023-03-16T18:46:44.740Z,12.40
2023-03-16T18:49:25.727Z,12.40
2023-03-16T18:51:54.582Z,12.40
2023-03-16T18:54:25.663Z,12.30
2023-03-16T18:56:53.908Z,12.30
2023-03-16T18:59:21.246Z,12.30
2023-03-16T19:01:48.305Z,12.30
2023-03-16T19:04:32.751Z,12.30
2023-03-16T19:06:59.602Z,12.20
2023-03-16T19:09:31.624Z,12.20
2023-03-16T19:11:58.697Z,12.20
2023-03-16T19:14:30.624Z,12.10
2023-03-16T19:16:57.648Z,12.10
2023-03-16T19:19:24.732Z,12.10
2023-03-16T19:21:54.967Z,12.10
2023-03-16T19:24:24.523Z,12.00
2023-03-16T19:26:51.925Z,12.00
2023-03-16T19:29:21.999Z,12.00
2023-03-16T19:31:48.833Z,11.90
2023-03-16T19:34:19.423Z,11.90
2023-03-16T19:36:46.963Z,11.90
2023-03-16T19:39:15.445Z,11.90
2023-03-16T19:41:43.090Z,11.90
2023-03-16T19:44:13.054Z,11.90
2023-03-16T19:46:40.526Z,11.80
2023-03-16T19:49:22.760Z,11.80
2023-03-16T19:51:51.503Z,11.80
2023-03-16T19:54:40.389Z,11.70
2023-03-16T19:57:13.732Z,11.70
2023-03-16T19:59:41.730Z,11.70
2023-03-16T20:02:35.539Z,11.70
2023-03-16T20:05:02.294Z,11.70
2023-03-16T20:07:29.277Z,11.60
2023-03-16T20:09:57.255Z,11.60
2023-03-16T20:12:28.587Z,11.60
2023-03-16T20:14:57.417Z,11.60
2023-03-16T20:17:26.237Z,11.60
2023-03-16T20:19:53.061Z,11.60
2023-03-16T20:22:25.125Z,11.60
2023-03-16T20:24:54.378Z,11.50
2023-03-16T20:27:24.190Z,11.50
2023-03-16T20:29:51.730Z,11.50
2023-03-16T20:32:24.726Z,11.50
2023-03-16T20:34:53.647Z,11.50
2023-03-16T20:37:29.946Z,11.40
2023-03-16T20:39:59.017Z,11.40
2023-03-16T20:42:31.728Z,11.40
2023-03-16T20:44:58.955Z,11.40
2023-03-16T20:47:26.712Z,11.40
2023-03-16T20:49:57.291Z,11.40
2023-03-16T20:52:28.321Z,11.40
2023-03-16T20:54:58.076Z,11.30
2023-03-16T20:57:27.104Z,11.30
2023-03-16T20:59:55.382Z,11.30
2023-03-16T21:02:36.071Z,11.30
2023-03-16T21:05:05.934Z,11.30
2023-03-16T21:07:32.730Z,11.30
2023-03-16T21:09:59.620Z,11.30
2023-03-16T21:12:32.770Z,11.20
2023-03-16T21:15:02.399Z,11.20
2023-03-16T21:17:31.881Z,11.20
2023-03-16T21:19:59.977Z,11.20
2023-03-16T21:22:32.280Z,11.20
2023-03-16T21:24:59.102Z,11.20
2023-03-16T21:27:32.026Z,11.20
2023-03-16T21:30:03.206Z,11.20
2023-03-16T21:32:30.919Z,11.20
2023-03-16T21:34:57.900Z,11.20
2023-03-16T21:37:24.759Z,11.20
2023-03-16T21:39:52.189Z,11.10
2023-03-16T21:42:19.726Z,11.20
2023-03-16T21:44:46.602Z,11.20
2023-03-16T21:47:28.743Z,11.20
2023-03-16T21:49:56.260Z,11.10
2023-03-16T21:52:26.799Z,11.10
2023-03-16T21:54:55.192Z,11.10
2023-03-16T21:57:21.986Z,11.10
2023-03-16T21:59:50.280Z,11.10
2023-03-16T22:02:22.476Z,11.10
2023-03-16T22:04:50.714Z,11.20
2023-03-16T22:07:18.233Z,11.20
2023-03-16T22:09:45.978Z,11.20
2023-03-16T22:12:14.029Z,11.20
2023-03-16T22:14:41.870Z,11.20
2023-03-16T22:17:20.287Z,11.20
2023-03-16T22:19:47.719Z,11.20
2023-03-16T22:22:16.927Z,11.20
2023-03-16T22:24:43.780Z,11.20
2023-03-16T22:27:30.051Z,11.20
2023-03-16T22:29:57.816Z,11.30
2023-03-16T22:32:24.525Z,11.20
2023-03-16T22:34:53.765Z,11.30
2023-03-16T22:37:24.159Z,11.30
2023-03-16T22:39:51.276Z,11.30
2023-03-16T22:42:24.857Z,11.20
2023-03-16T22:44:51.760Z,11.20
2023-03-16T22:47:24.169Z,11.20
2023-03-16T22:49:50.912Z,11.20
2023-03-16T22:52:18.741Z,11.20
2023-03-16T22:54:47.043Z,11.20
2023-03-16T22:57:16.305Z,11.20
2023-03-16T22:59:45.369Z,11.20
2023-03-16T23:02:16.083Z,11.20
2023-03-16T23:04:42.946Z,11.10
2023-03-16T23:07:13.908Z,11.10
2023-03-16T23:09:40.824Z,11.10
2023-03-16T23:12:20.981Z,11.10
2023-03-16T23:14:47.707Z,11.10
2023-03-16T23:17:20.116Z,11.10
2023-03-16T23:19:48.078Z,11.10
2023-03-16T23:22:15.478Z,11.00
2023-03-16T23:24:42.473Z,11.00
2023-03-16T23:27:21.944Z,11.00
2023-03-16T23:29:48.760Z,11.00
2023-03-16T23:32:17.121Z,10.90
2023-03-16T23:34:44.306Z,10.90
2023-03-16T23:37:11.706Z,10.90
2023-03-16T23:39:38.467Z,10.90
2023-03-16T23:42:05.389Z,10.80
2023-03-16T23:44:32.221Z,10.80
2023-03-16T23:46:59.830Z,10.80
2023-03-16T23:49:33.143Z,10.80
2023-03-16T23:52:01.581Z,10.70
2023-03-16T23:54:31.093Z,10.70
2023-03-16T23:56:58.060Z,10.70
2023-03-16T23:59:26.559Z,10.70
